Time;durP1;ratioP1;P1;durP2;ratioP2;P2;SDS_P1;SDS_P2;PMS_P1;PMS_P2;Temp;Humidity;BMP_temperature;BMP_pressure;BME280_temperature;BME280_humidity;BME280_pressure;Samples;Min_cycle;Max_cycle;Signal;HPM_P1;HPM_P2
2021/12/03 00:01:19;;;;;;;16.80;8.35;;;-0.30;99.90;;;;;;5017468;28;20029;-77
2021/12/03 00:03:46;;;;;;;15.52;7.93;;;-0.30;99.90;;;;;;5020717;28;20100;-77
2021/12/03 00:06:13;;;;;;;19.50;8.40;;;-0.30;99.90;;;;;;5019703;28;20033;-77
2021/12/03 00:08:40;;;;;;;14.50;8.75;;;-0.30;99.90;;;;;;5018066;28;20060;-77
2021/12/03 00:11:05;;;;;;;18.48;9.13;;;-0.30;99.90;;;;;;5022112;28;20029;-77
2021/12/03 00:13:32;;;;;;;17.00;8.45;;;-0.30;99.90;;;;;;5019917;28;20025;-77
2021/12/03 00:15:59;;;;;;;18.83;8.57;;;-0.30;99.90;;;;;;5035786;28;20038;-77
2021/12/03 00:18:25;;;;;;;15.30;7.65;;;-0.30;99.90;;;;;;5019861;28;20038;-77
2021/12/03 00:20:51;;;;;;;15.52;8.18;;;-0.30;99.90;;;;;;5019569;28;20031;-77
2021/12/03 00:23:18;;;;;;;18.60;8.27;;;-0.20;99.90;;;;;;5022018;28;20108;-77
2021/12/03 00:25:44;;;;;;;12.60;8.35;;;-0.20;99.90;;;;;;5021212;28;20022;-77
2021/12/03 00:28:10;;;;;;;19.30;8.40;;;-0.20;99.90;;;;;;5018743;28;20026;-77
2021/12/03 00:30:37;;;;;;;20.33;8.27;;;-0.20;99.90;;;;;;5026368;28;20076;-77
2021/12/03 00:33:04;;;;;;;13.75;7.90;;;-0.20;99.90;;;;;;5019583;28;20033;-77
2021/12/03 00:35:31;;;;;;;17.55;8.27;;;-0.20;99.90;;;;;;5014583;28;20424;-77
2021/12/03 00:37:57;;;;;;;15.98;8.80;;;-0.20;99.90;;;;;;5019330;28;20036;-77
2021/12/03 00:40:26;;;;;;;16.27;8.50;;;-0.20;99.90;;;;;;5019928;28;20140;-76
2021/12/03 00:42:52;;;;;;;18.10;8.95;;;-0.20;99.90;;;;;;5017714;28;20037;-76
2021/12/03 00:45:18;;;;;;;17.33;9.23;;;-0.20;99.90;;;;;;5023644;28;20091;-76
2021/12/03 00:47:44;;;;;;;12.95;8.40;;;-0.20;99.90;;;;;;5024530;28;20021;-76
2021/12/03 00:50:13;;;;;;;24.13;10.13;;;-0.20;99.90;;;;;;5025434;28;20060;-77
2021/12/03 00:52:39;;;;;;;24.35;10.32;;;-0.20;99.90;;;;;;5024853;28;20432;-76
2021/12/03 00:55:06;;;;;;;18.17;9.18;;;-0.20;99.90;;;;;;5021650;28;20034;-76
2021/12/03 00:57:32;;;;;;;19.92;10.40;;;-0.20;99.90;;;;;;5023546;28;20392;-77
2021/12/03 00:59:58;;;;;;;21.13;11.07;;;-0.20;99.90;;;;;;5024619;28;20037;-77
2021/12/03 01:02:23;;;;;;;18.85;10.77;;;-0.20;99.90;;;;;;5025667;28;20514;-76
2021/12/03 01:04:49;;;;;;;28.75;12.13;;;-0.20;99.90;;;;;;5024141;28;20029;-77
2021/12/03 01:07:16;;;;;;;22.38;12.45;;;-0.20;99.90;;;;;;5022287;28;20071;-76
2021/12/03 01:09:42;;;;;;;23.90;11.85;;;-0.10;99.90;;;;;;5025666;28;20025;-76
2021/12/03 01:12:08;;;;;;;23.48;11.70;;;-0.10;99.90;;;;;;5019588;28;20033;-77
2021/12/03 01:14:34;;;;;;;21.60;10.65;;;-0.10;99.90;;;;;;5021054;28;20036;-77
2021/12/03 01:17:00;;;;;;;21.92;12.85;;;-0.10;99.90;;;;;;5024639;28;20111;-76
2021/12/03 01:19:25;;;;;;;24.15;12.18;;;-0.10;99.90;;;;;;5021767;28;20096;-76
2021/12/03 01:21:51;;;;;;;20.02;11.82;;;0.00;99.90;;;;;;5023932;28;20038;-77
2021/12/03 01:24:17;;;;;;;22.67;12.25;;;0.00;99.90;;;;;;5025125;28;20045;-76
2021/12/03 01:26:45;;;;;;;19.73;12.65;;;0.00;99.90;;;;;;5022674;28;20021;-76
2021/12/03 01:29:11;;;;;;;26.05;12.80;;;-0.10;99.90;;;;;;5024100;28;20032;-76
2021/12/03 01:31:37;;;;;;;27.25;12.23;;;-0.10;99.90;;;;;;5019376;28;20038;-76
2021/12/03 01:34:02;;;;;;;22.40;12.52;;;-0.10;99.90;;;;;;5022059;28;20037;-76
2021/12/03 01:36:28;;;;;;;22.75;11.95;;;-0.10;99.90;;;;;;5023714;28;20103;-76
2021/12/03 01:38:55;;;;;;;24.95;13.73;;;-0.10;99.90;;;;;;5022497;28;20029;-76
2021/12/03 01:41:20;;;;;;;25.10;13.82;;;-0.10;99.90;;;;;;5021375;28;20431;-76
2021/12/03 01:43:46;;;;;;;26.02;14.07;;;-0.10;99.90;;;;;;5023361;28;20033;-76
2021/12/03 01:46:13;;;;;;;24.60;12.55;;;-0.10;99.90;;;;;;5024726;28;20099;-76
2021/12/03 01:48:40;;;;;;;26.45;13.85;;;-0.10;99.90;;;;;;5020756;28;20093;-76
2021/12/03 01:51:06;;;;;;;26.67;13.32;;;-0.10;99.90;;;;;;5020996;28;20025;-76
2021/12/03 01:53:37;;;;;;;28.92;13.98;;;-0.10;99.90;;;;;;5023032;28;20112;-76
2021/12/03 01:56:10;;;;;;;27.00;14.30;;;-0.10;99.90;;;;;;5020385;28;20013;-76
2021/12/03 01:58:36;;;;;;;22.02;12.25;;;0.00;99.90;;;;;;5019755;28;20017;-77
2021/12/03 02:01:07;;;;;;;25.02;13.52;;;0.00;99.90;;;;;;5020557;28;20072;-76
2021/12/03 02:03:35;;;;;;;22.65;13.63;;;0.00;99.90;;;;;;5022814;28;20044;-76
2021/12/03 02:06:03;;;;;;;28.33;13.88;;;0.10;99.90;;;;;;5020735;28;20423;-76
2021/12/03 02:08:29;;;;;;;27.35;14.65;;;0.10;99.90;;;;;;5019308;28;20026;-76
2021/12/03 02:10:55;;;;;;;28.55;14.57;;;0.10;99.90;;;;;;5022567;28;20017;-76
2021/12/03 02:13:21;;;;;;;26.25;15.00;;;0.10;99.90;;;;;;5023782;28;20030;-76
2021/12/03 02:15:47;;;;;;;28.63;14.88;;;0.20;99.90;;;;;;5020345;28;20041;-76
2021/12/03 02:18:15;;;;;;;26.90;15.57;;;0.30;99.90;;;;;;5019308;28;20148;-76
2021/12/03 02:21:00;;;;;;;31.35;17.95;;;0.30;99.90;;;;;;5024575;28;20024;-76
2021/12/03 02:23:27;;;;;;;24.77;14.32;;;0.30;99.90;;;;;;5018715;28;20036;-76
2021/12/03 02:25:53;;;;;;;27.20;14.57;;;0.40;99.90;;;;;;5021669;28;20030;-76
2021/12/03 02:28:21;;;;;;;29.60;16.65;;;0.40;99.90;;;;;;5021295;28;20029;-77
2021/12/03 02:30:47;;;;;;;32.20;17.98;;;0.40;99.90;;;;;;5022011;28;20477;-77
2021/12/03 02:33:13;;;;;;;33.95;17.77;;;0.40;99.90;;;;;;5020554;28;20055;-76
2021/12/03 02:35:43;;;;;;;29.63;16.55;;;0.50;99.90;;;;;;5021417;28;20074;-77
2021/12/03 02:38:10;;;;;;;32.80;19.65;;;0.50;99.90;;;;;;5023626;28;20040;-77
2021/12/03 02:40:37;;;;;;;37.42;19.58;;;0.50;99.90;;;;;;5019383;28;20492;-77
2021/12/03 02:43:03;;;;;;;32.63;18.50;;;0.60;99.90;;;;;;5023014;28;20041;-77
2021/12/03 02:45:29;;;;;;;38.63;19.92;;;0.60;99.90;;;;;;5022711;28;20025;-76
2021/12/03 02:47:56;;;;;;;32.50;18.58;;;0.60;99.90;;;;;;5023874;28;20022;-77
2021/12/03 02:50:22;;;;;;;37.00;19.48;;;0.60;99.90;;;;;;5016187;28;20260;-77
2021/12/03 02:52:49;;;;;;;38.55;19.75;;;0.60;99.90;;;;;;5020952;28;20510;-77
2021/12/03 02:55:15;;;;;;;32.40;19.80;;;0.60;99.90;;;;;;5020889;28;20030;-77
2021/12/03 02:57:41;;;;;;;34.70;19.48;;;0.60;99.90;;;;;;5025948;28;20064;-77
2021/12/03 03:00:14;;;;;;;38.38;21.55;;;0.60;99.90;;;;;;5018612;28;20036;-77
2021/12/03 03:02:40;;;;;;;38.88;21.23;;;0.60;99.90;;;;;;5019990;28;20065;-77
2021/12/03 03:05:09;;;;;;;38.45;22.58;;;0.60;99.90;;;;;;5020616;28;20025;-76
2021/12/03 03:07:34;;;;;;;41.03;22.30;;;0.70;99.90;;;;;;5018054;28;20560;-77
2021/12/03 03:10:00;;;;;;;40.40;22.23;;;0.70;99.90;;;;;;5020802;28;20101;-76
2021/12/03 03:12:26;;;;;;;45.20;23.02;;;0.70;99.90;;;;;;5021527;28;20026;-77
2021/12/03 03:14:56;;;;;;;41.35;22.73;;;0.80;99.90;;;;;;5020667;28;20045;-77
2021/12/03 03:17:23;;;;;;;47.72;26.38;;;0.80;99.90;;;;;;5020210;28;20030;-76
2021/12/03 03:19:49;;;;;;;52.85;27.00;;;0.80;99.90;;;;;;5022876;28;20083;-77
2021/12/03 03:22:15;;;;;;;51.40;26.73;;;0.80;99.90;;;;;;5018811;28;20077;-76
2021/12/03 03:24:41;;;;;;;54.63;28.30;;;0.90;99.90;;;;;;5018437;28;20201;-76
2021/12/03 03:27:08;;;;;;;53.58;28.75;;;0.90;99.90;;;;;;5021602;28;20021;-77
2021/12/03 03:29:33;;;;;;;58.92;30.23;;;0.90;99.90;;;;;;5018250;28;20025;-76
2021/12/03 03:31:59;;;;;;;59.88;30.50;;;1.00;99.90;;;;;;5021846;28;20562;-75
2021/12/03 03:34:24;;;;;;;61.45;32.13;;;1.00;99.90;;;;;;5020992;28;20032;-77
2021/12/03 03:36:51;;;;;;;61.15;32.35;;;1.00;99.90;;;;;;5020557;28;20068;-77
2021/12/03 03:39:17;;;;;;;69.03;33.58;;;1.00;99.90;;;;;;5023246;28;20472;-77
2021/12/03 03:41:42;;;;;;;70.45;33.53;;;1.10;99.90;;;;;;5018499;28;20109;-77
2021/12/03 03:44:09;;;;;;;69.38;32.83;;;1.10;99.90;;;;;;5018748;28;20117;-77
2021/12/03 03:46:36;;;;;;;70.32;33.25;;;1.10;99.90;;;;;;5021534;28;20697;-75
2021/12/03 03:49:01;;;;;;;72.30;32.67;;;1.10;99.90;;;;;;5021858;28;20130;-75
2021/12/03 03:51:27;;;;;;;77.05;34.35;;;1.10;99.90;;;;;;5016843;28;20117;-75
2021/12/03 03:53:52;;;;;;;79.18;34.70;;;1.10;99.90;;;;;;5019598;28;20034;-75
2021/12/03 03:56:18;;;;;;;74.53;34.42;;;1.10;99.90;;;;;;5023150;28;20111;-76
2021/12/03 03:58:44;;;;;;;75.13;33.72;;;1.20;99.90;;;;;;5025882;28;20071;-75
2021/12/03 04:01:11;;;;;;;82.20;35.08;;;1.20;99.90;;;;;;5021550;28;20025;-75
2021/12/03 04:03:37;;;;;;;80.13;33.72;;;1.20;99.90;;;;;;5023650;28;20468;-75
2021/12/03 04:06:02;;;;;;;78.95;32.72;;;1.20;99.90;;;;;;5019025;28;20036;-75
2021/12/03 04:08:31;;;;;;;85.53;36.42;;;1.30;99.90;;;;;;5016662;28;20018;-75
2021/12/03 04:10:58;;;;;;;84.63;35.33;;;1.30;99.90;;;;;;5020065;28;20064;-75
2021/12/03 04:13:24;;;;;;;90.90;35.90;;;1.30;99.90;;;;;;5018244;28;20087;-76
2021/12/03 04:15:50;;;;;;;94.40;37.75;;;1.30;99.90;;;;;;5018445;28;20392;-76
2021/12/03 04:18:16;;;;;;;93.55;35.83;;;1.30;99.90;;;;;;5019437;28;20085;-76
2021/12/03 04:20:41;;;;;;;92.07;35.08;;;1.30;99.90;;;;;;5020539;28;20574;-76
2021/12/03 04:23:07;;;;;;;104.97;36.25;;;1.30;99.90;;;;;;5022999;28;20099;-75
2021/12/03 04:25:34;;;;;;;97.35;37.65;;;1.40;99.90;;;;;;5022711;28;20124;-75
2021/12/03 04:28:00;;;;;;;103.45;37.67;;;1.40;99.90;;;;;;5023130;28;20057;-76
2021/12/03 04:30:28;;;;;;;100.93;38.05;;;1.40;99.90;;;;;;5024337;28;20561;-75
2021/12/03 04:32:56;;;;;;;107.10;38.22;;;1.40;99.90;;;;;;5023100;28;20045;-75
2021/12/03 04:35:23;;;;;;;105.75;41.53;;;1.40;99.90;;;;;;5026632;28;20152;-76
2021/12/03 04:37:49;;;;;;;109.30;39.70;;;1.50;99.90;;;;;;5022001;28;20034;-75
2021/12/03 04:40:16;;;;;;;122.57;42.83;;;1.50;99.90;;;;;;5021910;28;20479;-75
2021/12/03 04:42:42;;;;;;;127.15;43.22;;;1.50;99.90;;;;;;5023818;28;20107;-76
2021/12/03 04:45:11;;;;;;;104.78;38.58;;;1.50;99.90;;;;;;5022779;28;20498;-75
2021/12/03 04:47:37;;;;;;;109.70;40.72;;;1.50;99.90;;;;;;5023965;28;20066;-75
2021/12/03 04:50:04;;;;;;;104.65;39.28;;;1.50;99.90;;;;;;5023044;28;20018;-76
2021/12/03 04:52:30;;;;;;;118.25;42.40;;;1.50;99.90;;;;;;5022640;28;20038;-76
2021/12/03 04:54:56;;;;;;;106.45;38.17;;;1.50;99.90;;;;;;5027933;28;20037;-76
2021/12/03 04:57:21;;;;;;;109.97;39.33;;;1.40;99.90;;;;;;5023280;28;20042;-75
2021/12/03 04:59:47;;;;;;;106.68;40.88;;;1.40;99.90;;;;;;5027009;28;20026;-76
2021/12/03 05:02:13;;;;;;;107.80;39.50;;;1.40;99.90;;;;;;5024918;28;20402;-76
2021/12/03 05:04:40;;;;;;;114.55;41.75;;;1.40;99.90;;;;;;5024865;28;20021;-76
2021/12/03 05:09:37;;;;;;;116.00;42.85;;;1.40;99.90;;;;;;5023987;28;20030;-76
2021/12/03 05:12:04;;;;;;;106.32;40.65;;;1.40;99.90;;;;;;5021949;28;20033;-76
2021/12/03 05:14:30;;;;;;;109.05;42.22;;;1.40;99.90;;;;;;5022895;28;20026;-76
2021/12/03 05:16:56;;;;;;;104.93;43.10;;;1.40;99.90;;;;;;5021087;28;20049;-76
2021/12/03 05:19:22;;;;;;;119.80;43.30;;;1.50;99.90;;;;;;5020070;28;20025;-76
2021/12/03 05:21:48;;;;;;;101.20;39.35;;;1.50;99.90;;;;;;5017777;28;20026;-76
2021/12/03 05:24:14;;;;;;;111.10;39.65;;;1.40;99.90;;;;;;5019563;28;20467;-76
2021/12/03 05:26:40;;;;;;;98.93;39.30;;;1.50;99.90;;;;;;5026511;28;20028;-76
2021/12/03 05:29:08;;;;;;;107.95;41.88;;;1.50;99.90;;;;;;5023426;28;20368;-76
2021/12/03 05:31:35;;;;;;;106.82;42.28;;;1.60;99.90;;;;;;5024762;28;20036;-75
2021/12/03 05:34:02;;;;;;;118.10;43.50;;;1.60;99.90;;;;;;5016562;28;20030;-76
2021/12/03 05:36:28;;;;;;;109.95;43.38;;;1.60;99.90;;;;;;5023548;28;20083;-76
2021/12/03 05:38:53;;;;;;;110.80;41.67;;;1.60;99.90;;;;;;5021131;28;20025;-76
2021/12/03 05:41:19;;;;;;;110.30;42.22;;;1.70;99.90;;;;;;5023870;28;20037;-76
2021/12/03 05:43:45;;;;;;;107.07;42.72;;;1.70;99.90;;;;;;5018780;28;20098;-75
2021/12/03 05:46:10;;;;;;;120.00;42.22;;;1.70;99.90;;;;;;5021034;28;20437;-75
2021/12/03 05:48:36;;;;;;;115.13;42.50;;;1.80;99.90;;;;;;5024304;28;20028;-75
2021/12/03 05:51:01;;;;;;;105.50;40.85;;;1.80;99.90;;;;;;5024098;28;20014;-76
2021/12/03 05:53:27;;;;;;;109.10;40.47;;;1.80;99.90;;;;;;5022916;28;20030;-76
2021/12/03 05:55:53;;;;;;;111.78;41.15;;;1.80;99.90;;;;;;5025724;28;20022;-76
2021/12/03 05:58:18;;;;;;;105.35;41.00;;;1.80;99.90;;;;;;5022666;28;20460;-75
2021/12/03 06:00:45;;;;;;;110.78;39.90;;;1.90;99.90;;;;;;5024786;28;20018;-75
2021/12/03 06:03:11;;;;;;;105.35;39.17;;;1.90;99.90;;;;;;5019889;28;20411;-75
2021/12/03 06:05:40;;;;;;;104.55;39.05;;;1.90;99.90;;;;;;5022975;28;20476;-76
2021/12/03 06:08:06;;;;;;;97.82;35.42;;;1.90;99.90;;;;;;5021042;28;20021;-77
2021/12/03 06:10:31;;;;;;;87.35;37.38;;;1.90;99.90;;;;;;5029789;28;20017;-77
2021/12/03 06:12:57;;;;;;;93.38;35.15;;;2.00;99.90;;;;;;5027221;28;20033;-76
2021/12/03 06:15:23;;;;;;;91.93;35.90;;;2.00;99.90;;;;;;5024815;28;20396;-77
2021/12/03 06:17:48;;;;;;;91.43;37.50;;;2.10;99.90;;;;;;5023490;28;20034;-78
2021/12/03 06:20:16;;;;;;;87.60;36.15;;;2.10;99.90;;;;;;5020969;28;20038;-79
2021/12/03 06:22:42;;;;;;;75.40;33.42;;;2.20;99.90;;;;;;5015824;28;20392;-79
2021/12/03 06:25:09;;;;;;;83.32;35.42;;;2.30;99.90;;;;;;5016816;28;20025;-77
2021/12/03 06:27:36;;;;;;;74.80;31.90;;;2.40;99.90;;;;;;5018256;28;20033;-78
2021/12/03 06:30:06;;;;;;;69.20;31.67;;;2.30;99.90;;;;;;5022497;28;20075;-77
2021/12/03 06:32:32;;;;;;;79.05;31.30;;;2.40;99.90;;;;;;5022024;28;20479;-77
2021/12/03 06:34:57;;;;;;;73.53;30.92;;;2.40;99.90;;;;;;5019462;28;20105;-77
2021/12/03 06:37:23;;;;;;;63.15;30.45;;;2.40;99.90;;;;;;5019887;28;20018;-78
2021/12/03 06:39:48;;;;;;;59.88;27.35;;;2.40;99.90;;;;;;5022104;28;20030;-78
2021/12/03 06:42:14;;;;;;;65.35;27.20;;;2.50;99.90;;;;;;5017706;28;20116;-77
2021/12/03 06:44:39;;;;;;;51.97;24.95;;;2.50;99.90;;;;;;5026110;28;20053;-78
2021/12/03 06:47:05;;;;;;;52.90;25.65;;;2.50;99.90;;;;;;5025269;28;20124;-78
2021/12/03 06:49:33;;;;;;;53.65;24.75;;;2.50;99.90;;;;;;5023350;28;20024;-78
2021/12/03 06:52:05;;;;;;;46.83;22.17;;;2.50;99.90;;;;;;5017621;28;20038;-78
2021/12/03 06:54:33;;;;;;;54.78;21.77;;;2.50;99.90;;;;;;5024573;28;20423;-78
2021/12/03 06:57:00;;;;;;;48.17;19.85;;;2.60;99.90;;;;;;5024101;28;20116;-78
2021/12/03 06:59:26;;;;;;;50.40;19.48;;;2.60;99.90;;;;;;5028523;28;20539;-78
2021/12/03 07:01:52;;;;;;;41.83;17.23;;;2.60;99.90;;;;;;5014087;28;20180;-77
2021/12/03 07:04:19;;;;;;;37.90;17.60;;;2.60;99.90;;;;;;5032578;28;20021;-78
2021/12/03 07:06:46;;;;;;;34.13;15.43;;;2.60;99.90;;;;;;5029434;28;20026;-78
2021/12/03 07:09:12;;;;;;;32.92;15.13;;;2.60;99.90;;;;;;5036392;28;20029;-79
2021/12/03 07:11:41;;;;;;;40.33;15.23;;;2.60;99.90;;;;;;5032690;28;20073;-78
2021/12/03 07:14:06;;;;;;;28.40;13.00;;;2.60;99.90;;;;;;5020696;28;20037;-77
2021/12/03 07:16:33;;;;;;;32.97;12.38;;;2.60;99.90;;;;;;5018339;28;20124;-78
2021/12/03 07:18:58;;;;;;;31.10;12.02;;;2.60;99.90;;;;;;5018641;28;20113;-78
2021/12/03 07:21:24;;;;;;;32.33;10.90;;;2.60;99.90;;;;;;5024012;28;20116;-78
2021/12/03 07:23:51;;;;;;;33.10;11.40;;;2.50;99.90;;;;;;5021526;28;20034;-78
2021/12/03 07:26:17;;;;;;;29.17;9.93;;;2.50;99.90;;;;;;5021617;28;20030;-78
2021/12/03 07:28:43;;;;;;;29.35;10.20;;;2.50;99.90;;;;;;5022104;28;20025;-77
2021/12/03 07:31:09;;;;;;;22.60;7.93;;;2.50;99.90;;;;;;5016472;28;20033;-78
2021/12/03 07:33:35;;;;;;;22.38;9.30;;;2.40;99.90;;;;;;5032069;28;20026;-77
2021/12/03 07:36:00;;;;;;;21.60;8.13;;;2.40;99.90;;;;;;5027755;28;20028;-77
2021/12/03 07:38:26;;;;;;;25.40;7.25;;;2.40;99.90;;;;;;5037810;28;20026;-79
2021/12/03 07:40:52;;;;;;;21.73;7.63;;;2.30;99.90;;;;;;5021706;28;20539;-77
2021/12/03 07:43:18;;;;;;;20.88;7.35;;;2.40;99.90;;;;;;5021309;28;20024;-78
2021/12/03 07:45:48;;;;;;;19.95;6.53;;;2.40;99.90;;;;;;5024542;28;20091;-77
2021/12/03 07:48:14;;;;;;;22.63;6.18;;;2.30;99.90;;;;;;5019011;28;20108;-79
2021/12/03 07:50:41;;;;;;;21.25;6.57;;;2.40;99.90;;;;;;5020654;28;20152;-78
2021/12/03 07:53:09;;;;;;;28.80;7.20;;;2.40;99.90;;;;;;5024792;28;20083;-78
2021/12/03 07:55:35;;;;;;;25.67;6.65;;;2.40;99.90;;;;;;5025578;28;20014;-78
2021/12/03 07:58:04;;;;;;;15.45;5.35;;;2.40;99.90;;;;;;5027322;28;20052;-78
2021/12/03 08:00:30;;;;;;;18.20;6.65;;;2.40;99.90;;;;;;5020167;28;20030;-81
2021/12/03 08:02:55;;;;;;;22.08;5.85;;;2.40;99.90;;;;;;5020523;28;20042;-78
2021/12/03 08:05:21;;;;;;;17.63;5.63;;;2.40;99.90;;;;;;5017378;28;20030;-79
2021/12/03 08:07:48;;;;;;;14.75;6.15;;;2.40;99.90;;;;;;5021276;28;20022;-79
2021/12/03 08:10:15;;;;;;;24.25;6.03;;;2.40;99.90;;;;;;5016384;28;20416;-79
2021/12/03 08:12:41;;;;;;;16.42;5.10;;;2.40;99.90;;;;;;5032957;28;20037;-79
2021/12/03 08:15:08;;;;;;;15.02;5.00;;;2.50;99.90;;;;;;5019885;28;20053;-79
2021/12/03 08:17:34;;;;;;;13.90;5.07;;;2.50;99.90;;;;;;5028372;28;20022;-78
2021/12/03 08:19:59;;;;;;;17.10;6.47;;;2.40;99.90;;;;;;5019744;28;20045;-78
2021/12/03 08:22:25;;;;;;;14.13;5.00;;;2.50;99.90;;;;;;5022287;28;20068;-80
2021/12/03 08:24:50;;;;;;;11.57;5.45;;;2.50;99.90;;;;;;5020197;28;20164;-79
2021/12/03 08:27:16;;;;;;;14.45;5.00;;;2.50;99.90;;;;;;5016537;28;20052;-80
2021/12/03 08:29:42;;;;;;;19.92;5.90;;;2.50;99.90;;;;;;5035523;28;20033;-78
2021/12/03 08:32:10;;;;;;;16.67;4.97;;;2.50;99.90;;;;;;5025601;28;20488;-79
2021/12/03 08:34:36;;;;;;;15.63;5.35;;;2.60;99.90;;;;;;5019107;28;20017;-79
2021/12/03 08:37:02;;;;;;;13.02;4.28;;;2.60;99.90;;;;;;5017638;28;20026;-81
2021/12/03 08:39:30;;;;;;;14.52;5.07;;;2.60;99.90;;;;;;5029491;28;20033;-80
2021/12/03 08:41:55;;;;;;;15.05;4.35;;;2.60;99.90;;;;;;5016475;28;20040;-80
2021/12/03 08:44:21;;;;;;;18.23;4.00;;;2.70;99.90;;;;;;5014846;28;20018;-80
2021/12/03 08:46:51;;;;;;;10.52;4.15;;;2.70;99.90;;;;;;5017459;28;20052;-83
2021/12/03 08:49:28;;;;;;;13.00;4.85;;;2.70;99.90;;;;;;5014149;28;20018;-79
2021/12/03 08:52:49;;;;;;;14.98;4.70;;;2.80;99.90;;;;;;5015880;28;20488;-80
2021/12/03 08:54:53;;;;;;;12.15;4.70;;;2.80;99.90;;;;;;5007876;28;20045;-80
2021/12/03 08:57:33;;;;;;;14.00;4.60;;;2.80;99.90;;;;;;5020733;28;20102;-81
2021/12/03 09:00:01;;;;;;;11.32;5.10;;;2.80;99.90;;;;;;5018051;28;20671;-81
2021/12/03 09:02:27;;;;;;;17.42;5.32;;;2.90;99.90;;;;;;5019447;28;20117;-81
2021/12/03 09:04:53;;;;;;;16.23;5.05;;;2.90;99.90;;;;;;5020870;28;20050;-81
2021/12/03 09:07:18;;;;;;;20.55;4.95;;;2.90;99.90;;;;;;5017479;28;20025;-82
2021/12/03 09:09:44;;;;;;;13.77;4.25;;;2.90;99.90;;;;;;5016760;28;20575;-81
2021/12/03 09:12:11;;;;;;;18.75;5.65;;;3.00;99.90;;;;;;5025011;28;20100;-79
2021/12/03 09:14:43;;;;;;;12.55;4.28;;;3.10;99.90;;;;;;5024596;28;20052;-81
2021/12/03 09:20:23;;;;;;;27.63;4.97;;;3.10;99.90;;;;;;5001881;28;19909;-82
2021/12/03 09:23:16;;;;;;;16.63;4.05;;;3.10;99.90;;;;;;5025929;28;20076;-81
2021/12/03 09:25:38;;;;;;;16.15;4.03;;;3.10;99.90;;;;;;5017521;28;20030;-79
2021/12/03 09:28:07;;;;;;;12.93;2.95;;;3.20;99.90;;;;;;5020093;28;20116;-81
2021/12/03 09:30:37;;;;;;;12.68;2.78;;;3.30;99.90;;;;;;5019172;28;20021;-83
2021/12/03 09:33:08;;;;;;;16.58;3.05;;;3.30;99.90;;;;;;5016181;28;20030;-83
2021/12/03 09:35:41;;;;;;;13.97;3.57;;;3.30;99.90;;;;;;5019172;28;20037;-82
2021/12/03 09:38:07;;;;;;;17.67;2.92;;;3.30;99.90;;;;;;5022683;28;20030;-82
2021/12/03 09:40:35;;;;;;;13.13;2.75;;;3.30;99.90;;;;;;5029323;28;20087;-82
2021/12/03 09:43:02;;;;;;;15.52;3.60;;;3.40;99.90;;;;;;5021740;28;20018;-79
2021/12/03 09:45:29;;;;;;;13.15;3.95;;;3.40;99.90;;;;;;5021805;28;20041;-79
2021/12/03 09:47:55;;;;;;;16.83;3.42;;;3.40;99.90;;;;;;5023489;28;20033;-81
2021/12/03 09:50:21;;;;;;;18.98;3.30;;;3.50;99.90;;;;;;5019619;28;20022;-80
2021/12/03 09:53:21;;;;;;;16.73;2.85;;;3.50;99.90;;;;;;5021269;28;20431;-80
2021/12/03 09:55:47;;;;;;;14.25;2.90;;;3.50;99.90;;;;;;5020317;28;20032;-82
2021/12/03 09:58:39;;;;;;;14.45;3.15;;;3.70;99.90;;;;;;5017803;28;20029;-82
2021/12/03 10:01:16;;;;;;;16.73;3.13;;;3.90;99.90;;;;;;5016039;28;20057;-80
2021/12/03 10:04:02;;;;;;;15.20;2.95;;;4.00;99.90;;;;;;5020506;28;20096;-79
2021/12/03 10:14:47;;;;;;;11.40;2.25;;;4.40;99.90;;;;;;5016279;28;20116;-79
2021/12/03 10:23:32;;;;;;;11.02;3.03;;;4.40;99.90;;;;;;5011182;28;20030;-81
2021/12/03 10:33:43;;;;;;;15.13;3.00;;;4.30;99.90;;;;;;5014596;28;20033;-82
2021/12/03 10:48:12;;;;;;;13.45;3.15;;;4.40;99.90;;;;;;5014334;28;20408;-77
2021/12/03 10:53:12;;;;;;;16.35;2.65;;;4.40;99.90;;;;;;5033624;28;20104;-78
2021/12/03 11:01:56;;;;;;;11.57;3.45;;;4.30;99.90;;;;;;5018401;28;20407;-79
2021/12/03 11:31:47;;;;;;;14.25;3.25;;;4.60;99.90;;;;;;5021402;28;20026;-77
2021/12/03 11:34:54;;;;;;;16.45;3.20;;;4.60;99.90;;;;;;5019597;28;20053;-76
2021/12/03 11:43:04;;;;;;;10.15;2.60;;;4.60;99.90;;;;;;5021329;28;20116;-78
2021/12/03 11:51:53;;;;;;;13.65;3.83;;;4.70;99.90;;;;;;5021383;28;20071;-77
2021/12/03 12:30:06;;;;;;;15.60;3.67;;;5.20;99.90;;;;;;5017208;28;20026;-80
2021/12/03 13:17:14;;;;;;;7.45;2.35;;;5.40;99.90;;;;;;5018712;28;20057;-79
2021/12/03 13:34:18;;;;;;;9.57;2.15;;;5.30;99.90;;;;;;5020638;28;20159;-78
2021/12/03 13:45:13;;;;;;;7.68;1.70;;;5.30;99.90;;;;;;5015136;28;20030;-77
2021/12/03 14:00:50;;;;;;;3.97;1.20;;;5.20;99.90;;;;;;5021530;28;20030;-76
2021/12/03 14:06:25;;;;;;;3.63;1.48;;;5.10;99.90;;;;;;5024473;28;20407;-76
2021/12/03 14:38:16;;;;;;;8.38;1.67;;;4.80;99.90;;;;;;5028160;28;20048;-76
2021/12/03 14:51:56;;;;;;;7.25;2.85;;;4.80;99.90;;;;;;5014873;28;20033;-76
2021/12/03 14:54:49;;;;;;;8.57;1.50;;;4.80;99.90;;;;;;5011657;28;20460;-77
2021/12/03 14:57:11;;;;;;;6.00;1.65;;;4.70;99.90;;;;;;5032596;28;20556;-77
2021/12/03 14:59:40;;;;;;;5.47;1.83;;;4.70;99.90;;;;;;5021356;28;20033;-76
2021/12/03 15:02:22;;;;;;;6.20;1.52;;;4.70;99.90;;;;;;5015605;28;20034;-76
2021/12/03 15:05:14;;;;;;;8.00;1.80;;;4.70;99.90;;;;;;5013301;28;20387;-77
2021/12/03 15:07:45;;;;;;;6.32;1.95;;;4.70;99.90;;;;;;5015449;28;20034;-77
2021/12/03 15:10:21;;;;;;;5.35;1.63;;;4.60;99.90;;;;;;5026953;28;20056;-78
2021/12/03 15:16:28;;;;;;;3.58;1.83;;;4.50;99.90;;;;;;5008266;28;20043;-79
2021/12/03 15:26:59;;;;;;;5.88;1.83;;;4.40;99.90;;;;;;5013726;28;20026;-79
2021/12/03 15:29:46;;;;;;;5.22;1.70;;;4.40;99.90;;;;;;5022301;28;20033;-78
2021/12/03 15:37:42;;;;;;;5.13;2.35;;;4.40;99.90;;;;;;5020377;28;20052;-80
2021/12/03 15:54:26;;;;;;;5.65;2.60;;;4.40;99.90;;;;;;5019149;28;20036;-78
2021/12/03 15:57:01;;;;;;;7.95;2.72;;;4.40;99.90;;;;;;5019098;28;20592;-77
2021/12/03 16:10:43;;;;;;;4.00;2.22;;;4.40;99.90;;;;;;5030849;28;20108;-78
2021/12/03 16:23:51;;;;;;;5.05;3.03;;;4.40;99.90;;;;;;5017532;28;20096;-79
2021/12/03 16:53:23;;;;;;;5.78;4.10;;;4.50;99.90;;;;;;5018848;28;20445;-79
2021/12/03 16:55:59;;;;;;;6.22;3.65;;;4.50;99.90;;;;;;5015851;28;20386;-79
2021/12/03 16:58:25;;;;;;;6.90;3.95;;;4.60;99.90;;;;;;5018296;28;20026;-78
2021/12/03 17:00:59;;;;;;;7.15;4.10;;;4.70;99.90;;;;;;5018842;28;20022;-79
2021/12/03 17:03:35;;;;;;;4.63;3.38;;;4.70;99.90;;;;;;5024692;28;20148;-79
2021/12/03 17:18:08;;;;;;;6.15;4.10;;;5.00;99.90;;;;;;5006305;28;20095;-82
2021/12/03 17:49:34;;;;;;;4.97;3.72;;;4.80;99.90;;;;;;5016075;28;20044;-79
2021/12/03 17:52:30;;;;;;;8.90;4.60;;;4.70;99.90;;;;;;5019552;28;20030;-80
2021/12/03 17:55:15;;;;;;;4.40;3.97;;;4.80;99.90;;;;;;5040607;28;20029;-80
2021/12/03 18:03:43;;;;;;;5.43;4.50;;;4.70;99.90;;;;;;5027557;28;20032;-78
2021/12/03 18:08:53;;;;;;;4.72;4.32;;;4.70;99.90;;;;;;5028495;28;20060;-80
2021/12/03 18:14:36;;;;;;;4.95;3.90;;;4.60;99.90;;;;;;5024954;28;20555;-79
2021/12/03 18:44:40;;;;;;;5.80;3.95;;;4.70;99.90;;;;;;5022944;28;20542;-79
2021/12/03 18:49:57;;;;;;;4.55;4.00;;;4.80;99.90;;;;;;5019727;28;20025;-80
2021/12/03 18:53:00;;;;;;;4.65;4.20;;;4.80;99.90;;;;;;5020792;28;20022;-80
2021/12/03 18:55:42;;;;;;;5.93;5.18;;;4.80;99.90;;;;;;5022464;28;20137;-78
2021/12/03 18:58:08;;;;;;;5.60;4.55;;;4.80;99.90;;;;;;5016294;28;20057;-80
2021/12/03 19:00:41;;;;;;;5.38;4.88;;;4.80;99.90;;;;;;5024829;28;20365;-79
2021/12/03 19:03:24;;;;;;;5.90;5.10;;;4.80;99.90;;;;;;5019559;28;20396;-79
2021/12/03 19:11:24;;;;;;;6.18;5.47;;;4.80;99.90;;;;;;5023689;28;20104;-78
2021/12/03 19:13:46;;;;;;;8.40;5.85;;;4.80;99.90;;;;;;5015833;28;20125;-78
2021/12/03 19:16:14;;;;;;;5.32;4.82;;;4.80;99.90;;;;;;5021957;28;20043;-78
2021/12/03 19:18:45;;;;;;;5.15;4.72;;;4.80;99.90;;;;;;5023173;28;20583;-78
2021/12/03 19:21:15;;;;;;;6.78;5.38;;;4.80;99.90;;;;;;5013897;28;20022;-78
2021/12/03 19:23:40;;;;;;;5.97;5.38;;;4.80;99.90;;;;;;5015542;28;20022;-81
2021/12/03 19:26:06;;;;;;;6.28;5.28;;;4.80;99.90;;;;;;5019266;28;20037;-80
2021/12/03 19:28:32;;;;;;;5.47;4.88;;;4.80;99.90;;;;;;5016025;28;20029;-81
2021/12/03 19:30:58;;;;;;;5.22;4.70;;;4.80;99.90;;;;;;5020144;28;20399;-83
2021/12/03 19:33:24;;;;;;;6.10;5.50;;;4.80;99.90;;;;;;5023834;28;20281;-82
2021/12/03 19:35:50;;;;;;;5.85;5.25;;;4.80;99.90;;;;;;5020537;28;20022;-80
2021/12/03 19:38:17;;;;;;;6.60;5.45;;;4.80;99.90;;;;;;5016500;28;20033;-82
2021/12/03 19:40:53;;;;;;;5.78;5.25;;;4.80;99.90;;;;;;5015057;28;20042;-85
2021/12/03 19:43:25;;;;;;;7.03;6.32;;;4.80;99.90;;;;;;5016203;28;20116;-82